Airfield :
LOGIN :

Register | Disclaimer

   EN    FR    IT 

 










Legend :    VFR   Marginal VFR   IFR   Intensive IFR   Very Intensive IFR
Visi :
Ceiling :
>= 8 km
>= 3000ft
5 to 8 km
1000 to 3000 ft
1500m to 5 km
500 to 1000 ft
800 to 1500m
200 to 500 ft
< 800m
< 200 ft
Symbols :   Thunderstorms  Fog  Heavy snow  Heavy precipitations  Wind > 20 kt
SIGMETs :     Misc.  Thunderstorms  Icing  Turbulence  Mountain Waves  Volcanic Ashes







- Airport Elevation : 1302 ft
- IATA code : GNB
- Download approach charts


LFLS - Grenoble / St. Geoirs

CURRENT METAR :
  • 232000Z AUTO 28011KT 240V300 9999 -RA FEW009/// BKN016/// BKN022/// ///TCU 09/07 Q1014 TEMPO 3000 RA BKN012 BKN040TCU FEW050CB BECMG 04005KT

EXPIRED METARs :
  • 231930Z AUTO 23013KT 210V270 9999 RA FEW023/// SCT029/// BKN060/// ///TCU 11/07 Q1014 TEMPO 3000 RA BKN012 BKN040TCU FEW050CB BECMG 04005KT
  • 231900Z AUTO 29011KT 9999 FEW070/// OVC080/// ///TCU 13/07 Q1012 TEMPO 4000 SHRA BKN012 BKN040TCU FEW050CB BECMG 04005KT
  • 231830Z AUTO 28009KT 220V300 CAVOK 13/05 Q1011 TEMPO VRB15G30KT 4000 SHRA BKN012 BKN040TCU FEW050CB
  • 231800Z AUTO 17012KT 9999 FEW074 SCT170 15/01 Q1011 TEMPO VRB15G30KT 2000 TSRA BKN012 BKN040CB
  • 231730Z AUTO 16013KT CAVOK 15/01 Q1010 TEMPO VRB15G30KT 2000 TSRA BKN012 BKN040CB
  • 231700Z AUTO 16011KT 9999 FEW072 16/01 Q1009 TEMPO VRB15G30KT 2000 TSRA BKN012 BKN040CB

TAF AMD TAF LFLS
Valid from the 23 at 15:00 until the 24 at 15:00 UTC


231507Z 2315/2415 22010KT 9999 BKN020
PROB40
TEMPO 2315/2321 4000 SHRA BKN012 BKN040TCU FEW050CB
PROB30
TEMPO 2315/2320 VRB15G30KT 2000 TSRA BKN012 BKN040CB
BECMG 2320/2322 04005KT
TEMPO 2321/2324 3000 RA BKN008
BECMG 2400/2402 BKN045
TEMPO 2406/2415 RA SCT015 BKN040
ATIS : +33 4 76 65 55 89
No reported NOTAMs for that airfield.
1 SIGMET reported for the Marseille FIR (LFMM) :
 
Embedded thunderstorms
LFMM SIGMET 15 VALID 231800/232000 LFPW
LFMM MARSEILLE FIR/UIR EMBD TS FCST WI N4630 E00330 - N4630 E00600 - N4300 E00530 - N4345 E00345 TOP FL320 STNR NC=



MET'MAP, your aeronautical weather chart ! - Copyright ORBIFLY December 2007 - Disclaimer

ORBIFLY MET'MAP TEAM :

Programming & Development : Alexandra Zaïnal
Concept & Development : Baudouin d'Aumeries
Co-Development & Prog : Marc-Olivier Méhu
Technical & hardware support : Manuel Goepfert

Contact : metmap@orbifly.com




SOURCES & CREDITS :

   NOAA